createdAt,value
2023-05-03T00:01:13.338Z,6.40
2023-05-03T00:03:43.541Z,6.30
2023-05-03T00:06:13.098Z,6.30
2023-05-03T00:08:41.986Z,6.20
2023-05-03T00:11:11.049Z,6.20
2023-05-03T00:13:39.350Z,6.20
2023-05-03T00:16:08.312Z,6.10
2023-05-03T00:18:36.832Z,6.10
2023-05-03T00:21:06.678Z,6.00
2023-05-03T00:23:35.035Z,6.00
2023-05-03T00:26:03.456Z,6.00
2023-05-03T00:28:31.878Z,6.00
2023-05-03T00:31:08.456Z,6.10
2023-05-03T00:33:36.854Z,6.00
2023-05-03T00:36:14.022Z,6.00
2023-05-03T00:38:43.207Z,6.00
2023-05-03T00:41:13.089Z,6.00
2023-05-03T00:43:41.537Z,5.90
2023-05-03T00:46:17.304Z,5.90
2023-05-03T00:48:46.675Z,5.90
2023-05-03T00:51:17.034Z,5.80
2023-05-03T00:53:45.789Z,5.90
2023-05-03T00:56:19.491Z,5.90
2023-05-03T00:58:47.958Z,5.80
2023-05-03T01:01:16.678Z,5.80
2023-05-03T01:03:46.628Z,5.60
2023-05-03T01:06:24.267Z,5.70
2023-05-03T01:09:00.848Z,5.70
2023-05-03T01:11:37.300Z,5.70
2023-05-03T01:14:11.537Z,5.70
2023-05-03T01:16:45.549Z,5.70
2023-05-03T01:19:25.552Z,5.70
2023-05-03T01:22:02.366Z,5.70
2023-05-03T01:24:33.352Z,5.70
2023-05-03T01:27:03.104Z,5.70
2023-05-03T01:29:31.659Z,5.70
2023-05-03T01:32:02.608Z,5.70
2023-05-03T01:34:39.212Z,5.70
2023-05-03T01:37:12.796Z,5.70
2023-05-03T01:39:47.267Z,5.60
2023-05-03T01:42:17.762Z,5.60
2023-05-03T01:44:46.724Z,5.60
2023-05-03T01:47:16.094Z,5.60
2023-05-03T01:49:44.438Z,5.60
2023-05-03T01:52:12.871Z,5.60
2023-05-03T01:54:41.278Z,5.70
2023-05-03T01:57:09.624Z,5.60
2023-05-03T01:59:39.328Z,5.60
2023-05-03T02:02:07.774Z,5.60
2023-05-03T02:04:37.206Z,5.60
2023-05-03T02:07:05.580Z,5.60
2023-05-03T02:09:33.945Z,5.60
2023-05-03T02:12:02.385Z,5.60
2023-05-03T02:14:33.059Z,5.60
2023-05-03T02:17:03.459Z,5.60
2023-05-03T02:19:32.005Z,5.60
2023-05-03T02:22:00.378Z,5.60
2023-05-03T02:24:29.686Z,5.60
2023-05-03T02:26:58.083Z,5.60
2023-05-03T02:29:26.446Z,5.60
2023-05-03T02:31:54.928Z,5.60
2023-05-03T02:34:25.490Z,5.50
2023-05-03T02:36:53.800Z,5.50
2023-05-03T02:39:22.162Z,5.50
2023-05-03T02:41:50.961Z,5.50
2023-05-03T02:44:19.429Z,5.40
2023-05-03T02:51:47.010Z,5.30
2023-05-03T02:54:15.684Z,5.30
2023-05-03T02:56:44.008Z,5.20
2023-05-03T02:59:12.907Z,5.10
2023-05-03T03:01:41.394Z,5.10
2023-05-03T03:05:11.166Z,5.00
2023-05-03T03:07:53.558Z,4.90
2023-05-03T03:10:21.961Z,4.90
2023-05-03T03:12:50.308Z,4.90
2023-05-03T03:15:18.921Z,4.90
2023-05-03T03:17:47.277Z,4.90
2023-05-03T03:20:16.955Z,4.80
2023-05-03T03:22:45.614Z,4.70
2023-05-03T03:25:16.060Z,4.70
2023-05-03T03:32:42.856Z,4.80
2023-05-03T03:35:11.675Z,4.80
2023-05-03T03:37:40.509Z,4.80
2023-05-03T03:40:10.709Z,4.70
2023-05-03T03:42:40.875Z,4.70
2023-05-03T03:45:11.322Z,4.70
2023-05-03T03:47:39.610Z,4.80
2023-05-03T03:50:08.586Z,4.80
2023-05-03T03:52:36.975Z,4.80
2023-05-03T03:55:06.327Z,4.90
2023-05-03T03:57:34.649Z,4.80
2023-05-03T04:00:09.664Z,4.80
2023-05-03T04:02:38.101Z,4.80
2023-05-03T04:05:08.185Z,4.80
2023-05-03T04:07:36.534Z,4.80
2023-05-03T04:10:05.500Z,4.80
2023-05-03T04:12:34.156Z,4.80
2023-05-03T04:15:04.315Z,4.90
2023-05-03T04:17:34.947Z,4.80
2023-05-03T04:20:05.719Z,4.80
2023-05-03T04:22:34.306Z,4.70
2023-05-03T04:25:02.668Z,4.80
2023-05-03T04:27:30.979Z,4.90
2023-05-03T04:29:59.968Z,5.10
2023-05-03T04:32:29.898Z,5.20
2023-05-03T04:34:58.754Z,5.40
2023-05-03T04:37:27.535Z,5.50
2023-05-03T04:39:55.810Z,5.60
2023-05-03T04:42:24.303Z,5.80
2023-05-03T04:44:52.808Z,5.80
2023-05-03T04:47:21.727Z,5.80
2023-05-03T04:49:51.579Z,5.90
2023-05-03T04:52:19.872Z,6.00
2023-05-03T04:54:49.276Z,6.00
2023-05-03T04:57:17.674Z,6.00
2023-05-03T04:59:46.216Z,6.10
2023-05-03T05:02:14.581Z,6.20
2023-05-03T05:04:43.094Z,6.30
2023-05-03T05:07:13.804Z,6.30
2023-05-03T05:09:42.407Z,6.40
2023-05-03T05:12:10.799Z,6.60
2023-05-03T05:14:39.191Z,6.60
2023-05-03T05:17:07.676Z,6.70
2023-05-03T05:19:36.378Z,6.80
2023-05-03T05:22:04.732Z,6.90
2023-05-03T05:24:34.461Z,7.00
2023-05-03T05:27:02.976Z,7.10
2023-05-03T05:29:31.290Z,7.20
2023-05-03T05:31:59.886Z,7.30
2023-05-03T05:34:29.005Z,7.30
2023-05-03T05:36:58.167Z,7.20
2023-05-03T05:39:26.633Z,7.20
2023-05-03T05:41:56.360Z,7.20
2023-05-03T05:44:24.779Z,7.20
2023-05-03T05:46:53.180Z,7.30
2023-05-03T05:49:21.621Z,7.40
2023-05-03T05:51:49.995Z,7.50
2023-05-03T05:54:18.345Z,7.70
2023-05-03T05:56:46.697Z,7.70
2023-05-03T05:59:16.408Z,7.70
2023-05-03T06:01:46.314Z,7.80
2023-05-03T06:04:15.002Z,8.00
2023-05-03T06:06:43.691Z,8.00
2023-05-03T06:09:23.589Z,8.00
2023-05-03T06:11:52.892Z,8.20
2023-05-03T06:14:22.609Z,8.30
2023-05-03T06:16:51.784Z,8.50
2023-05-03T06:19:20.180Z,8.60
2023-05-03T06:21:48.494Z,8.70
2023-05-03T06:24:21.287Z,8.80
2023-05-03T06:26:49.849Z,9.10
2023-05-03T06:29:18.322Z,9.20
2023-05-03T06:31:48.074Z,9.20
2023-05-03T06:34:20.181Z,9.20
2023-05-03T06:36:48.661Z,9.30
2023-05-03T06:39:17.519Z,9.40
2023-05-03T06:41:45.939Z,9.60
2023-05-03T06:46:43.879Z,9.80
2023-05-03T06:49:13.685Z,9.40
2023-05-03T06:51:42.418Z,9.40
2023-05-03T06:56:39.660Z,9.60
2023-05-03T07:01:37.626Z,9.80
2023-05-03T07:04:06.516Z,9.90
2023-05-03T07:06:48.292Z,10.20
2023-05-03T07:09:35.398Z,10.30
2023-05-03T07:12:11.002Z,10.40
2023-05-03T07:14:40.437Z,10.60
2023-05-03T07:37:02.405Z,10.70
2023-05-03T07:39:32.357Z,11.80
2023-05-03T07:46:59.403Z,11.60
2023-05-03T07:49:27.878Z,11.90
2023-05-03T07:51:56.265Z,11.90
2023-05-03T07:54:24.561Z,12.30
2023-05-03T07:56:55.696Z,12.30
2023-05-03T07:59:24.610Z,12.20
2023-05-03T08:01:53.106Z,12.10
2023-05-03T08:04:21.801Z,11.90
2023-05-03T08:06:50.362Z,12.00
2023-05-03T08:09:18.857Z,12.10
2023-05-03T08:11:47.324Z,11.90
2023-05-03T08:14:17.262Z,12.00
2023-05-03T08:16:45.558Z,12.30
2023-05-03T08:19:13.966Z,12.20
2023-05-03T08:21:43.194Z,12.10
2023-05-03T08:24:12.808Z,12.00
2023-05-03T08:26:42.483Z,12.20
2023-05-03T08:29:11.307Z,12.30
2023-05-03T08:31:41.390Z,12.40
2023-05-03T08:34:10.909Z,12.60
2023-05-03T08:36:39.363Z,12.40
2023-05-03T08:39:07.837Z,12.40
2023-05-03T08:41:36.238Z,12.50
2023-05-03T08:44:05.640Z,12.90
2023-05-03T08:46:37.225Z,13.30
2023-05-03T08:49:07.929Z,13.00
2023-05-03T08:51:37.895Z,13.00
2023-05-03T08:54:06.511Z,13.10
2023-05-03T09:32:01.797Z,14.00
2023-05-03T09:34:31.866Z,14.40
2023-05-03T09:37:00.251Z,14.30
2023-05-03T09:39:28.617Z,13.90
2023-05-03T09:41:57.624Z,13.90
2023-05-03T09:44:42.967Z,13.90
2023-05-03T09:47:11.922Z,14.10
2023-05-03T09:49:41.704Z,14.50
2023-05-03T09:52:11.268Z,14.70
2023-05-03T09:54:40.090Z,14.70
2023-05-03T09:57:10.090Z,14.60
2023-05-03T09:59:39.832Z,14.70
2023-05-03T10:02:09.620Z,14.60
2023-05-03T10:04:44.891Z,14.80
2023-05-03T10:07:18.238Z,14.70
2023-05-03T10:09:48.639Z,14.60
2023-05-03T10:12:17.881Z,14.70
2023-05-03T10:14:48.302Z,14.80
2023-05-03T10:17:29.224Z,15.50
2023-05-03T10:20:20.508Z,15.50
2023-05-03T10:23:11.936Z,15.00
2023-05-03T10:25:42.122Z,15.30
2023-05-03T10:28:11.440Z,15.10
2023-05-03T10:30:41.361Z,15.00
2023-05-03T10:33:32.713Z,14.90
2023-05-03T10:36:07.415Z,15.50
2023-05-03T10:38:35.746Z,16.10
2023-05-03T10:41:06.880Z,15.90
2023-05-03T10:43:46.658Z,15.90
2023-05-03T10:46:36.034Z,15.80
2023-05-03T10:49:18.467Z,15.90
2023-05-03T10:51:48.737Z,16.60
2023-05-03T10:54:19.489Z,17.10
2023-05-03T10:56:52.749Z,16.90
2023-05-03T10:59:23.351Z,16.70
2023-05-03T11:01:53.377Z,16.70
2023-05-03T11:04:46.725Z,16.50
2023-05-03T11:07:22.750Z,16.90
2023-05-03T11:09:51.057Z,16.30
2023-05-03T11:12:19.391Z,16.20
2023-05-03T11:14:48.857Z,16.30
2023-05-03T11:17:17.386Z,16.20
2023-05-03T11:19:46.287Z,16.90
2023-05-03T11:22:14.790Z,16.30
2023-05-03T11:24:44.478Z,16.10
2023-05-03T11:27:14.026Z,16.40
2023-05-03T11:29:42.343Z,16.60
2023-05-03T11:32:11.030Z,16.90
2023-05-03T11:34:40.699Z,17.00
2023-05-03T11:37:11.020Z,17.00
2023-05-03T11:39:39.405Z,16.90
2023-05-03T11:42:09.362Z,17.20
2023-05-03T11:44:40.769Z,17.20
2023-05-03T11:47:09.524Z,17.20
2023-05-03T11:49:38.245Z,16.90
2023-05-03T11:52:06.868Z,17.40
2023-05-03T11:54:35.220Z,17.70
2023-05-03T12:12:38.505Z,17.70
2023-05-03T12:15:16.332Z,18.10
2023-05-03T12:17:48.971Z,18.20
2023-05-03T12:22:56.603Z,18.30
2023-05-03T12:25:28.668Z,18.30
2023-05-03T12:30:33.969Z,17.90
2023-05-03T12:33:04.877Z,18.20
2023-05-03T12:35:34.529Z,18.30
2023-05-03T12:38:04.456Z,18.30
2023-05-03T12:40:35.295Z,18.60
2023-05-03T12:43:04.559Z,18.30
2023-05-03T12:45:35.064Z,18.30
2023-05-03T12:48:03.864Z,18.50
2023-05-03T12:50:32.701Z,18.50
2023-05-03T12:53:08.591Z,19.10
2023-05-03T12:55:43.304Z,19.30
2023-05-03T12:58:43.291Z,19.30
2023-05-03T13:01:46.806Z,19.00
2023-05-03T13:04:05.176Z,19.10
2023-05-03T13:06:43.292Z,19.20
2023-05-03T13:09:19.191Z,19.40
2023-05-03T13:11:50.952Z,19.10
2023-05-03T13:14:19.873Z,19.30
2023-05-03T13:16:51.398Z,19.40
2023-05-03T13:19:20.110Z,19.10
2023-05-03T13:21:49.563Z,19.50
2023-05-03T13:24:17.993Z,19.20
2023-05-03T13:26:46.569Z,19.10
2023-05-03T13:29:15.306Z,19.30
2023-05-03T13:31:43.731Z,18.80
2023-05-03T13:34:13.480Z,18.70
2023-05-03T13:36:41.852Z,18.90
2023-05-03T13:39:10.549Z,19.10
2023-05-03T13:41:42.113Z,19.20
2023-05-03T13:44:11.688Z,19.50
2023-05-03T13:46:41.491Z,19.50
2023-05-03T13:49:10.147Z,19.60
2023-05-03T13:51:39.969Z,19.90
2023-05-03T13:54:08.623Z,19.90
2023-05-03T13:56:38.053Z,20.40
2023-05-03T13:59:09.745Z,19.80
2023-05-03T14:01:38.309Z,19.50
2023-05-03T14:04:07.329Z,19.60
2023-05-03T14:06:37.705Z,19.10
2023-05-03T14:09:10.979Z,19.40
2023-05-03T14:11:41.840Z,20.00
2023-05-03T14:14:10.296Z,20.40
2023-05-03T14:16:41.997Z,20.50
2023-05-03T14:19:12.078Z,20.30
2023-05-03T14:21:42.900Z,20.30
2023-05-03T14:24:12.796Z,20.10
2023-05-03T14:26:41.252Z,19.80
2023-05-03T14:29:09.644Z,19.90
2023-05-03T14:31:38.013Z,19.50
2023-05-03T14:34:06.424Z,19.80
2023-05-03T14:36:38.797Z,20.20
2023-05-03T14:39:07.301Z,20.00
2023-05-03T14:41:37.070Z,19.80
2023-05-03T14:44:55.190Z,18.90
2023-05-03T14:54:25.767Z,20.80
2023-05-03T14:57:54.756Z,20.70
2023-05-03T15:06:07.412Z,20.90
2023-05-03T15:08:35.734Z,20.40
2023-05-03T15:11:04.039Z,20.60
2023-05-03T15:13:32.420Z,20.30
2023-05-03T15:16:00.741Z,20.10
2023-05-03T15:18:29.049Z,20.30
2023-05-03T15:20:59.132Z,20.20
2023-05-03T15:23:28.505Z,19.50
2023-05-03T15:25:56.772Z,19.50
2023-05-03T15:28:26.105Z,19.80
2023-05-03T15:30:54.366Z,19.80
2023-05-03T15:33:22.928Z,20.10
2023-05-03T15:35:51.224Z,19.80
2023-05-03T15:38:20.928Z,20.20
2023-05-03T15:40:49.297Z,20.00
2023-05-03T15:43:18.586Z,20.10
2023-05-03T15:45:46.971Z,20.10
2023-05-03T15:54:35.825Z,20.00
2023-05-03T15:57:05.501Z,19.70
2023-05-03T16:03:10.398Z,19.70
2023-05-03T16:10:34.562Z,19.60
2023-05-03T16:13:43.151Z,19.70
2023-05-03T16:17:19.042Z,19.60
2023-05-03T16:34:03.935Z,19.30
2023-05-03T16:38:08.192Z,19.50
2023-05-03T16:55:53.556Z,18.10
2023-05-03T17:04:53.007Z,17.10
2023-05-03T17:07:22.377Z,17.10
2023-05-03T17:09:51.201Z,17.00
2023-05-03T17:13:26.863Z,17.00
2023-05-03T17:17:25.698Z,16.90
2023-05-03T17:24:01.521Z,16.90
2023-05-03T17:25:05.130Z,16.90
2023-05-03T17:29:22.072Z,16.90
2023-05-03T17:33:10.136Z,16.90
2023-05-03T17:37:29.466Z,16.90
2023-05-03T17:44:40.763Z,16.60
2023-05-03T17:49:31.159Z,16.50
2023-05-03T17:56:51.758Z,16.40
2023-05-03T18:02:47.644Z,16.20
2023-05-03T18:07:11.096Z,16.00
2023-05-03T18:14:48.352Z,15.80
2023-05-03T18:21:58.475Z,15.60
2023-05-03T18:31:23.420Z,15.40
2023-05-03T18:36:39.127Z,15.10
2023-05-03T18:40:59.697Z,15.00
2023-05-03T18:44:31.938Z,14.80
2023-05-03T18:52:31.264Z,14.60
2023-05-03T19:02:34.346Z,14.30
2023-05-03T19:07:07.400Z,14.10
2023-05-03T19:10:55.018Z,13.80
2023-05-03T19:14:31.855Z,13.60
2023-05-03T19:18:14.830Z,13.50
2023-05-03T19:21:35.126Z,13.50
2023-05-03T19:24:52.060Z,13.40
2023-05-03T19:28:33.552Z,13.30
2023-05-03T19:33:05.024Z,13.20
2023-05-03T19:44:10.176Z,13.00
2023-05-03T19:46:37.843Z,13.10
2023-05-03T19:48:41.903Z,12.90
2023-05-03T19:51:39.731Z,12.80
2023-05-03T19:54:15.021Z,12.70
2023-05-03T20:01:19.082Z,12.70
2023-05-03T20:06:15.327Z,12.60
2023-05-03T20:09:28.619Z,12.60
2023-05-03T20:22:48.438Z,12.40
2023-05-03T20:26:39.936Z,12.40
2023-05-03T20:30:35.956Z,12.40
2023-05-03T20:33:56.436Z,12.30
2023-05-03T20:38:29.606Z,12.30
2023-05-03T20:41:38.016Z,12.20
2023-05-03T20:44:49.130Z,12.20
2023-05-03T20:49:11.586Z,12.10
2023-05-03T20:53:31.462Z,12.10
2023-05-03T20:58:15.708Z,12.00
2023-05-03T21:00:41.741Z,12.00
2023-05-03T21:04:23.680Z,11.80
2023-05-03T21:07:37.202Z,11.80
2023-05-03T21:14:20.174Z,11.70
2023-05-03T21:25:14.375Z,11.60
2023-05-03T21:28:41.799Z,11.50
2023-05-03T21:32:33.279Z,11.50
2023-05-03T21:35:41.431Z,11.50
2023-05-03T21:41:55.175Z,11.40
2023-05-03T21:42:24.492Z,11.40
2023-05-03T21:45:30.365Z,11.40
2023-05-03T21:49:21.962Z,11.30
2023-05-03T21:52:51.913Z,11.30
2023-05-03T21:59:26.254Z,11.20
2023-05-03T22:07:32.151Z,11.20
2023-05-03T22:11:17.965Z,11.20
2023-05-03T22:15:34.323Z,11.10
2023-05-03T22:19:30.895Z,11.10
2023-05-03T22:26:09.132Z,11.00
2023-05-03T22:29:55.944Z,10.90
2023-05-03T22:33:38.761Z,11.00
2023-05-03T22:37:33.836Z,10.90
2023-05-03T22:44:50.943Z,10.90
2023-05-03T22:48:49.278Z,11.00
2023-05-03T22:53:08.244Z,11.10
2023-05-03T22:59:56.142Z,11.10
2023-05-03T23:01:13.723Z,11.10
2023-05-03T23:07:13.612Z,11.00
2023-05-03T23:08:33.527Z,11.00
2023-05-03T23:12:32.034Z,10.90
2023-05-03T23:15:54.711Z,10.90
2023-05-03T23:19:28.493Z,10.80
2023-05-03T23:23:15.498Z,10.70
2023-05-03T23:30:41.720Z,10.50
2023-05-03T23:38:38.990Z,10.10
2023-05-03T23:46:08.155Z,10.00
2023-05-03T23:50:35.924Z,9.80
2023-05-03T23:53:26.770Z,9.70
2023-05-03T23:58:02.684Z,9.60
